sensor_id;sensor_type;location;lat;lon;timestamp;P1;durP1;ratioP1;P2;durP2;ratioP2
62880;SDS011;48969;49.934;8.596;2022-09-12T00:01:22;13.93;;;11.35;;
62880;SDS011;48969;49.934;8.596;2022-09-12T00:03:53;12.50;;;11.20;;
62880;SDS011;48969;49.934;8.596;2022-09-12T00:06:21;12.63;;;11.32;;
62880;SDS011;48969;49.934;8.596;2022-09-12T00:08:55;12.85;;;10.73;;
62880;SDS011;48969;49.934;8.596;2022-09-12T00:11:23;12.30;;;11.00;;
62880;SDS011;48969;49.934;8.596;2022-09-12T00:13:48;12.05;;;10.82;;
62880;SDS011;48969;49.934;8.596;2022-09-12T00:16:15;13.27;;;11.45;;
62880;SDS011;48969;49.934;8.596;2022-09-12T00:18:44;13.50;;;10.93;;
62880;SDS011;48969;49.934;8.596;2022-09-12T00:21:10;11.85;;;10.63;;
62880;SDS011;48969;49.934;8.596;2022-09-12T00:23:36;13.05;;;10.65;;
62880;SDS011;48969;49.934;8.596;2022-09-12T00:26:03;12.80;;;11.15;;
62880;SDS011;48969;49.934;8.596;2022-09-12T00:28:31;12.75;;;11.20;;
62880;SDS011;48969;49.934;8.596;2022-09-12T00:30:57;12.85;;;10.88;;
62880;SDS011;48969;49.934;8.596;2022-09-12T00:33:23;14.07;;;11.65;;
62880;SDS011;48969;49.934;8.596;2022-09-12T00:35:50;13.32;;;11.88;;
62880;SDS011;48969;49.934;8.596;2022-09-12T00:38:19;14.75;;;11.85;;
62880;SDS011;48969;49.934;8.596;2022-09-12T00:40:45;12.50;;;11.20;;
62880;SDS011;48969;49.934;8.596;2022-09-12T00:43:31;12.93;;;11.55;;
62880;SDS011;48969;49.934;8.596;2022-09-12T00:48:40;13.05;;;11.65;;
62880;SDS011;48969;49.934;8.596;2022-09-12T00:51:09;15.30;;;12.65;;
62880;SDS011;48969;49.934;8.596;2022-09-12T00:53:35;14.77;;;12.65;;
62880;SDS011;48969;49.934;8.596;2022-09-12T00:56:02;15.15;;;13.10;;
62880;SDS011;48969;49.934;8.596;2022-09-12T00:58:29;15.13;;;12.85;;
62880;SDS011;48969;49.934;8.596;2022-09-12T01:00:59;14.07;;;12.52;;
62880;SDS011;48969;49.934;8.596;2022-09-12T01:03:25;16.20;;;12.70;;
62880;SDS011;48969;49.934;8.596;2022-09-12T01:06:13;15.70;;;12.93;;
62880;SDS011;48969;49.934;8.596;2022-09-12T01:08:42;14.40;;;12.90;;
62880;SDS011;48969;49.934;8.596;2022-09-12T01:11:08;14.75;;;12.95;;
62880;SDS011;48969;49.934;8.596;2022-09-12T01:13:35;13.55;;;12.13;;
62880;SDS011;48969;49.934;8.596;2022-09-12T01:16:01;14.98;;;13.38;;
62880;SDS011;48969;49.934;8.596;2022-09-12T01:23:39;14.50;;;12.98;;
62880;SDS011;48969;49.934;8.596;2022-09-12T01:28:57;13.25;;;11.82;;
62880;SDS011;48969;49.934;8.596;2022-09-12T01:31:47;13.93;;;12.52;;
62880;SDS011;48969;49.934;8.596;2022-09-12T01:37:08;14.40;;;12.90;;
62880;SDS011;48969;49.934;8.596;2022-09-12T01:42:33;13.85;;;12.45;;
62880;SDS011;48969;49.934;8.596;2022-09-12T01:47:41;15.75;;;13.13;;
62880;SDS011;48969;49.934;8.596;2022-09-12T01:50:12;14.13;;;12.63;;
62880;SDS011;48969;49.934;8.596;2022-09-12T01:52:50;15.25;;;13.68;;
62880;SDS011;48969;49.934;8.596;2022-09-12T01:55:24;15.05;;;13.45;;
62880;SDS011;48969;49.934;8.596;2022-09-12T01:58:08;15.25;;;12.75;;
62880;SDS011;48969;49.934;8.596;2022-09-12T02:00:50;14.50;;;12.38;;
62880;SDS011;48969;49.934;8.596;2022-09-12T02:03:25;14.52;;;12.20;;
62880;SDS011;48969;49.934;8.596;2022-09-12T02:05:57;15.00;;;13.15;;
62880;SDS011;48969;49.934;8.596;2022-09-12T02:08:30;17.23;;;13.07;;
62880;SDS011;48969;49.934;8.596;2022-09-12T02:11:04;13.05;;;11.32;;
62880;SDS011;48969;49.934;8.596;2022-09-12T02:13:34;13.48;;;11.98;;
62880;SDS011;48969;49.934;8.596;2022-09-12T02:16:06;15.00;;;11.88;;
62880;SDS011;48969;49.934;8.596;2022-09-12T02:18:34;13.35;;;11.93;;
62880;SDS011;48969;49.934;8.596;2022-09-12T02:21:08;14.13;;;11.80;;
62880;SDS011;48969;49.934;8.596;2022-09-12T02:23:35;14.93;;;12.48;;
62880;SDS011;48969;49.934;8.596;2022-09-12T02:26:09;14.52;;;12.70;;
62880;SDS011;48969;49.934;8.596;2022-09-12T02:28:40;15.63;;;13.73;;
62880;SDS011;48969;49.934;8.596;2022-09-12T02:31:10;13.80;;;12.35;;
62880;SDS011;48969;49.934;8.596;2022-09-12T02:36:29;14.13;;;12.10;;
62880;SDS011;48969;49.934;8.596;2022-09-12T02:39:00;13.60;;;12.20;;
62880;SDS011;48969;49.934;8.596;2022-09-12T02:41:25;14.15;;;12.65;;
62880;SDS011;48969;49.934;8.596;2022-09-12T02:43:51;14.40;;;12.90;;
62880;SDS011;48969;49.934;8.596;2022-09-12T02:46:20;14.05;;;12.32;;
62880;SDS011;48969;49.934;8.596;2022-09-12T02:48:47;15.05;;;13.52;;
62880;SDS011;48969;49.934;8.596;2022-09-12T02:51:12;13.75;;;12.30;;
62880;SDS011;48969;49.934;8.596;2022-09-12T02:53:38;16.15;;;12.07;;
62880;SDS011;48969;49.934;8.596;2022-09-12T02:59:26;14.18;;;12.23;;
62880;SDS011;48969;49.934;8.596;2022-09-12T03:15:28;13.63;;;11.27;;
62880;SDS011;48969;49.934;8.596;2022-09-12T03:23:20;12.25;;;10.48;;
62880;SDS011;48969;49.934;8.596;2022-09-12T03:26:02;15.10;;;12.77;;
62880;SDS011;48969;49.934;8.596;2022-09-12T03:28:33;14.10;;;12.32;;
62880;SDS011;48969;49.934;8.596;2022-09-12T03:30:59;15.15;;;11.77;;
62880;SDS011;48969;49.934;8.596;2022-09-12T03:33:25;12.82;;;11.32;;
62880;SDS011;48969;49.934;8.596;2022-09-12T03:35:51;12.20;;;10.75;;
62880;SDS011;48969;49.934;8.596;2022-09-12T03:38:17;12.32;;;11.02;;
62880;SDS011;48969;49.934;8.596;2022-09-12T03:40:43;13.15;;;11.75;;
62880;SDS011;48969;49.934;8.596;2022-09-12T03:43:10;13.30;;;11.82;;
62880;SDS011;48969;49.934;8.596;2022-09-12T03:45:35;14.55;;;13.05;;
62880;SDS011;48969;49.934;8.596;2022-09-12T03:48:01;14.48;;;11.27;;
62880;SDS011;48969;49.934;8.596;2022-09-12T03:50:28;13.13;;;11.35;;
62880;SDS011;48969;49.934;8.596;2022-09-12T03:52:53;12.43;;;10.80;;
62880;SDS011;48969;49.934;8.596;2022-09-12T03:55:18;12.63;;;11.07;;
62880;SDS011;48969;49.934;8.596;2022-09-12T03:57:44;12.55;;;10.45;;
62880;SDS011;48969;49.934;8.596;2022-09-12T04:00:10;13.70;;;11.75;;
62880;SDS011;48969;49.934;8.596;2022-09-12T04:02:35;14.43;;;12.85;;
62880;SDS011;48969;49.934;8.596;2022-09-12T04:05:01;15.32;;;13.07;;
62880;SDS011;48969;49.934;8.596;2022-09-12T04:07:26;14.00;;;12.48;;
62880;SDS011;48969;49.934;8.596;2022-09-12T04:09:51;15.52;;;13.30;;
62880;SDS011;48969;49.934;8.596;2022-09-12T04:12:17;16.92;;;13.75;;
62880;SDS011;48969;49.934;8.596;2022-09-12T04:14:43;15.88;;;14.18;;
62880;SDS011;48969;49.934;8.596;2022-09-12T04:17:08;16.52;;;14.23;;
62880;SDS011;48969;49.934;8.596;2022-09-12T04:19:34;16.85;;;15.02;;
62880;SDS011;48969;49.934;8.596;2022-09-12T04:21:59;23.33;;;15.77;;
62880;SDS011;48969;49.934;8.596;2022-09-12T04:24:24;16.95;;;14.60;;
62880;SDS011;48969;49.934;8.596;2022-09-12T04:26:49;17.83;;;15.05;;
62880;SDS011;48969;49.934;8.596;2022-09-12T04:29:15;16.73;;;14.43;;
62880;SDS011;48969;49.934;8.596;2022-09-12T04:31:40;16.83;;;15.00;;
62880;SDS011;48969;49.934;8.596;2022-09-12T04:34:06;16.70;;;15.00;;
62880;SDS011;48969;49.934;8.596;2022-09-12T04:36:31;16.00;;;13.93;;
62880;SDS011;48969;49.934;8.596;2022-09-12T04:38:58;18.25;;;15.40;;
62880;SDS011;48969;49.934;8.596;2022-09-12T04:41:26;18.25;;;14.57;;
62880;SDS011;48969;49.934;8.596;2022-09-12T04:43:55;16.48;;;14.32;;
62880;SDS011;48969;49.934;8.596;2022-09-12T04:46:31;16.33;;;14.43;;
62880;SDS011;48969;49.934;8.596;2022-09-12T04:49:02;16.00;;;13.77;;
62880;SDS011;48969;49.934;8.596;2022-09-12T04:51:32;17.17;;;14.50;;
62880;SDS011;48969;49.934;8.596;2022-09-12T04:54:01;16.30;;;14.60;;
62880;SDS011;48969;49.934;8.596;2022-09-12T04:56:29;15.15;;;13.25;;
62880;SDS011;48969;49.934;8.596;2022-09-12T04:58:58;16.08;;;13.55;;
62880;SDS011;48969;49.934;8.596;2022-09-12T05:01:25;15.70;;;14.07;;
62880;SDS011;48969;49.934;8.596;2022-09-12T05:03:52;15.45;;;13.82;;
62880;SDS011;48969;49.934;8.596;2022-09-12T05:06:20;15.88;;;14.02;;
62880;SDS011;48969;49.934;8.596;2022-09-12T05:08:48;14.93;;;13.38;;
62880;SDS011;48969;49.934;8.596;2022-09-12T05:11:15;16.77;;;13.38;;
62880;SDS011;48969;49.934;8.596;2022-09-12T05:13:42;15.88;;;13.68;;
62880;SDS011;48969;49.934;8.596;2022-09-12T05:16:09;15.75;;;14.05;;
62880;SDS011;48969;49.934;8.596;2022-09-12T05:18:37;15.82;;;14.13;;
62880;SDS011;48969;49.934;8.596;2022-09-12T05:21:05;17.35;;;15.18;;
62880;SDS011;48969;49.934;8.596;2022-09-12T05:23:32;16.27;;;14.57;;
62880;SDS011;48969;49.934;8.596;2022-09-12T05:25:58;16.10;;;14.38;;
62880;SDS011;48969;49.934;8.596;2022-09-12T05:28:24;18.80;;;15.88;;
62880;SDS011;48969;49.934;8.596;2022-09-12T05:31:04;17.45;;;15.55;;
62880;SDS011;48969;49.934;8.596;2022-09-12T05:33:29;16.30;;;14.55;;
62880;SDS011;48969;49.934;8.596;2022-09-12T05:35:55;17.88;;;15.15;;
62880;SDS011;48969;49.934;8.596;2022-09-12T05:38:21;17.73;;;15.25;;
62880;SDS011;48969;49.934;8.596;2022-09-12T05:40:48;19.23;;;15.65;;
62880;SDS011;48969;49.934;8.596;2022-09-12T05:43:14;17.70;;;15.40;;
62880;SDS011;48969;49.934;8.596;2022-09-12T05:45:39;16.83;;;14.73;;
62880;SDS011;48969;49.934;8.596;2022-09-12T05:48:05;16.33;;;14.63;;
62880;SDS011;48969;49.934;8.596;2022-09-12T05:50:30;18.48;;;16.48;;
62880;SDS011;48969;49.934;8.596;2022-09-12T05:52:56;18.13;;;15.68;;
62880;SDS011;48969;49.934;8.596;2022-09-12T05:55:22;17.52;;;15.68;;
62880;SDS011;48969;49.934;8.596;2022-09-12T05:57:48;18.75;;;16.73;;
62880;SDS011;48969;49.934;8.596;2022-09-12T06:00:14;18.42;;;16.35;;
62880;SDS011;48969;49.934;8.596;2022-09-12T06:02:39;18.98;;;16.85;;
62880;SDS011;48969;49.934;8.596;2022-09-12T06:05:05;18.92;;;16.85;;
62880;SDS011;48969;49.934;8.596;2022-09-12T06:07:30;19.02;;;16.77;;
62880;SDS011;48969;49.934;8.596;2022-09-12T06:09:56;19.27;;;17.20;;
62880;SDS011;48969;49.934;8.596;2022-09-12T06:12:23;19.95;;;17.67;;
62880;SDS011;48969;49.934;8.596;2022-09-12T06:14:50;19.60;;;17.30;;
62880;SDS011;48969;49.934;8.596;2022-09-12T06:17:16;19.48;;;16.75;;
62880;SDS011;48969;49.934;8.596;2022-09-12T06:19:41;18.85;;;16.85;;
62880;SDS011;48969;49.934;8.596;2022-09-12T06:22:06;18.50;;;16.60;;
62880;SDS011;48969;49.934;8.596;2022-09-12T06:24:32;20.35;;;18.20;;
62880;SDS011;48969;49.934;8.596;2022-09-12T06:26:57;20.63;;;18.40;;
62880;SDS011;48969;49.934;8.596;2022-09-12T06:29:23;20.77;;;18.48;;
62880;SDS011;48969;49.934;8.596;2022-09-12T06:31:48;21.75;;;18.38;;
62880;SDS011;48969;49.934;8.596;2022-09-12T06:34:14;20.83;;;17.85;;
62880;SDS011;48969;49.934;8.596;2022-09-12T06:36:41;20.38;;;17.95;;
62880;SDS011;48969;49.934;8.596;2022-09-12T06:39:12;19.92;;;17.23;;
62880;SDS011;48969;49.934;8.596;2022-09-12T06:41:39;18.45;;;16.52;;
62880;SDS011;48969;49.934;8.596;2022-09-12T06:44:04;20.25;;;17.42;;
62880;SDS011;48969;49.934;8.596;2022-09-12T06:46:30;18.30;;;16.15;;
62880;SDS011;48969;49.934;8.596;2022-09-12T06:48:56;20.40;;;16.67;;
62880;SDS011;48969;49.934;8.596;2022-09-12T06:51:23;18.85;;;16.52;;
62880;SDS011;48969;49.934;8.596;2022-09-12T06:53:50;18.45;;;16.23;;
62880;SDS011;48969;49.934;8.596;2022-09-12T06:56:19;17.60;;;15.73;;
62880;SDS011;48969;49.934;8.596;2022-09-12T06:58:47;17.80;;;15.88;;
62880;SDS011;48969;49.934;8.596;2022-09-12T07:01:15;17.40;;;15.60;;
62880;SDS011;48969;49.934;8.596;2022-09-12T07:03:41;17.52;;;15.73;;
62880;SDS011;48969;49.934;8.596;2022-09-12T07:06:08;18.77;;;16.48;;
62880;SDS011;48969;49.934;8.596;2022-09-12T07:08:35;18.30;;;15.45;;
62880;SDS011;48969;49.934;8.596;2022-09-12T07:11:12;16.08;;;14.38;;
62880;SDS011;48969;49.934;8.596;2022-09-12T07:13:38;16.52;;;14.63;;
62880;SDS011;48969;49.934;8.596;2022-09-12T07:16:04;16.10;;;14.13;;
62880;SDS011;48969;49.934;8.596;2022-09-12T07:18:31;15.48;;;13.90;;
62880;SDS011;48969;49.934;8.596;2022-09-12T07:21:01;15.20;;;13.60;;
62880;SDS011;48969;49.934;8.596;2022-09-12T07:23:30;16.08;;;14.35;;
62880;SDS011;48969;49.934;8.596;2022-09-12T07:25:57;16.48;;;14.77;;
62880;SDS011;48969;49.934;8.596;2022-09-12T07:28:24;15.23;;;13.70;;
62880;SDS011;48969;49.934;8.596;2022-09-12T07:30:50;15.95;;;14.25;;
62880;SDS011;48969;49.934;8.596;2022-09-12T07:33:18;16.63;;;13.95;;
62880;SDS011;48969;49.934;8.596;2022-09-12T07:35:44;16.52;;;14.82;;
62880;SDS011;48969;49.934;8.596;2022-09-12T07:38:09;15.45;;;13.95;;
62880;SDS011;48969;49.934;8.596;2022-09-12T07:40:35;15.52;;;13.93;;
62880;SDS011;48969;49.934;8.596;2022-09-12T07:43:00;16.40;;;14.70;;
62880;SDS011;48969;49.934;8.596;2022-09-12T07:45:26;18.08;;;15.32;;
62880;SDS011;48969;49.934;8.596;2022-09-12T07:47:52;17.75;;;13.80;;
62880;SDS011;48969;49.934;8.596;2022-09-12T07:50:18;22.40;;;14.77;;
62880;SDS011;48969;49.934;8.596;2022-09-12T07:52:44;16.88;;;13.98;;
62880;SDS011;48969;49.934;8.596;2022-09-12T07:55:09;14.85;;;13.30;;
62880;SDS011;48969;49.934;8.596;2022-09-12T07:57:34;15.02;;;13.43;;
62880;SDS011;48969;49.934;8.596;2022-09-12T07:59:59;16.80;;;13.80;;
62880;SDS011;48969;49.934;8.596;2022-09-12T08:02:25;16.10;;;13.05;;
62880;SDS011;48969;49.934;8.596;2022-09-12T08:04:51;15.88;;;14.27;;
62880;SDS011;48969;49.934;8.596;2022-09-12T08:07:17;15.90;;;13.85;;
62880;SDS011;48969;49.934;8.596;2022-09-12T08:09:43;15.07;;;13.48;;
62880;SDS011;48969;49.934;8.596;2022-09-12T08:12:08;16.15;;;13.75;;
62880;SDS011;48969;49.934;8.596;2022-09-12T08:14:34;14.10;;;12.70;;
62880;SDS011;48969;49.934;8.596;2022-09-12T08:16:59;18.60;;;13.57;;
62880;SDS011;48969;49.934;8.596;2022-09-12T08:19:24;15.98;;;14.30;;
62880;SDS011;48969;49.934;8.596;2022-09-12T08:21:50;15.23;;;13.63;;
62880;SDS011;48969;49.934;8.596;2022-09-12T08:24:15;14.88;;;13.25;;
62880;SDS011;48969;49.934;8.596;2022-09-12T08:26:41;16.35;;;13.88;;
62880;SDS011;48969;49.934;8.596;2022-09-12T08:29:07;14.15;;;12.55;;
62880;SDS011;48969;49.934;8.596;2022-09-12T08:31:32;14.40;;;12.98;;
62880;SDS011;48969;49.934;8.596;2022-09-12T08:34:01;14.60;;;12.70;;
62880;SDS011;48969;49.934;8.596;2022-09-12T08:36:30;14.45;;;12.70;;
62880;SDS011;48969;49.934;8.596;2022-09-12T08:38:56;13.73;;;11.93;;
62880;SDS011;48969;49.934;8.596;2022-09-12T08:41:30;13.23;;;11.82;;
62880;SDS011;48969;49.934;8.596;2022-09-12T08:49:36;14.18;;;12.68;;
62880;SDS011;48969;49.934;8.596;2022-09-12T08:52:13;14.70;;;13.20;;
62880;SDS011;48969;49.934;8.596;2022-09-12T08:54:43;13.02;;;11.68;;
62880;SDS011;48969;49.934;8.596;2022-09-12T08:57:11;14.23;;;12.70;;
62880;SDS011;48969;49.934;8.596;2022-09-12T08:59:43;14.38;;;12.98;;
62880;SDS011;48969;49.934;8.596;2022-09-12T09:05:17;13.32;;;11.52;;
62880;SDS011;48969;49.934;8.596;2022-09-12T09:13:19;12.18;;;10.63;;
62880;SDS011;48969;49.934;8.596;2022-09-12T09:19:03;12.93;;;11.32;;
62880;SDS011;48969;49.934;8.596;2022-09-12T09:21:38;11.57;;;10.48;;
62880;SDS011;48969;49.934;8.596;2022-09-12T09:24:09;11.57;;;10.38;;
62880;SDS011;48969;49.934;8.596;2022-09-12T09:26:57;11.27;;;10.18;;
62880;SDS011;48969;49.934;8.596;2022-09-12T09:29:23;11.48;;;10.27;;
62880;SDS011;48969;49.934;8.596;2022-09-12T09:31:54;12.40;;;10.95;;
62880;SDS011;48969;49.934;8.596;2022-09-12T09:34:23;11.80;;;9.93;;
62880;SDS011;48969;49.934;8.596;2022-09-12T09:39:58;11.02;;;9.95;;
62880;SDS011;48969;49.934;8.596;2022-09-12T09:45:23;11.80;;;9.70;;
62880;SDS011;48969;49.934;8.596;2022-09-12T09:50:35;10.65;;;8.60;;
62880;SDS011;48969;49.934;8.596;2022-09-12T09:53:01;10.40;;;9.30;;
62880;SDS011;48969;49.934;8.596;2022-09-12T09:55:29;10.52;;;9.35;;
62880;SDS011;48969;49.934;8.596;2022-09-12T09:58:02;9.55;;;8.65;;
62880;SDS011;48969;49.934;8.596;2022-09-12T10:00:29;10.63;;;8.45;;
62880;SDS011;48969;49.934;8.596;2022-09-12T10:05:46;9.00;;;8.05;;
62880;SDS011;48969;49.934;8.596;2022-09-12T10:10:58;8.50;;;7.35;;
62880;SDS011;48969;49.934;8.596;2022-09-12T10:13:36;8.88;;;7.70;;
62880;SDS011;48969;49.934;8.596;2022-09-12T10:16:06;11.63;;;8.18;;
62880;SDS011;48969;49.934;8.596;2022-09-12T10:18:52;8.38;;;7.32;;
62880;SDS011;48969;49.934;8.596;2022-09-12T10:24:03;8.40;;;6.63;;
62880;SDS011;48969;49.934;8.596;2022-09-12T10:26:34;8.00;;;6.40;;
62880;SDS011;48969;49.934;8.596;2022-09-12T10:29:05;9.15;;;7.53;;
62880;SDS011;48969;49.934;8.596;2022-09-12T10:31:49;9.57;;;7.90;;
62880;SDS011;48969;49.934;8.596;2022-09-12T10:34:20;8.77;;;7.07;;
62880;SDS011;48969;49.934;8.596;2022-09-12T10:36:58;7.47;;;6.57;;
62880;SDS011;48969;49.934;8.596;2022-09-12T10:39:26;8.48;;;7.53;;
62880;SDS011;48969;49.934;8.596;2022-09-12T10:41:53;7.15;;;6.45;;
62880;SDS011;48969;49.934;8.596;2022-09-12T10:44:51;9.05;;;6.40;;
62880;SDS011;48969;49.934;8.596;2022-09-12T10:47:23;7.18;;;6.47;;
62880;SDS011;48969;49.934;8.596;2022-09-12T10:49:55;7.38;;;6.20;;
62880;SDS011;48969;49.934;8.596;2022-09-12T10:52:44;7.65;;;6.22;;
62880;SDS011;48969;49.934;8.596;2022-09-12T10:55:13;7.93;;;6.30;;
62880;SDS011;48969;49.934;8.596;2022-09-12T10:57:42;7.03;;;6.03;;
62880;SDS011;48969;49.934;8.596;2022-09-12T11:00:17;8.25;;;7.18;;
62880;SDS011;48969;49.934;8.596;2022-09-12T11:11:17;7.47;;;6.70;;
62880;SDS011;48969;49.934;8.596;2022-09-12T11:14:04;7.93;;;7.13;;
62880;SDS011;48969;49.934;8.596;2022-09-12T11:16:48;8.48;;;7.25;;
62880;SDS011;48969;49.934;8.596;2022-09-12T11:22:29;9.35;;;7.18;;
62880;SDS011;48969;49.934;8.596;2022-09-12T11:25:39;9.00;;;7.00;;
62880;SDS011;48969;49.934;8.596;2022-09-12T11:27:58;7.68;;;6.88;;
62880;SDS011;48969;49.934;8.596;2022-09-12T11:33:05;8.00;;;6.60;;
62880;SDS011;48969;49.934;8.596;2022-09-12T11:35:50;7.43;;;6.57;;
62880;SDS011;48969;49.934;8.596;2022-09-12T11:40:54;9.20;;;7.07;;
62880;SDS011;48969;49.934;8.596;2022-09-12T11:45:52;7.95;;;6.88;;
62880;SDS011;48969;49.934;8.596;2022-09-12T11:48:36;9.57;;;7.05;;
62880;SDS011;48969;49.934;8.596;2022-09-12T11:51:28;7.40;;;6.32;;
62880;SDS011;48969;49.934;8.596;2022-09-12T11:54:13;8.18;;;6.70;;
62880;SDS011;48969;49.934;8.596;2022-09-12T11:56:45;9.45;;;7.30;;
62880;SDS011;48969;49.934;8.596;2022-09-12T12:01:49;9.20;;;7.35;;
62880;SDS011;48969;49.934;8.596;2022-09-12T12:04:24;8.35;;;7.15;;
62880;SDS011;48969;49.934;8.596;2022-09-12T12:07:00;7.53;;;6.72;;
62880;SDS011;48969;49.934;8.596;2022-09-12T12:09:28;7.55;;;6.70;;
62880;SDS011;48969;49.934;8.596;2022-09-12T12:11:55;8.57;;;6.97;;
62880;SDS011;48969;49.934;8.596;2022-09-12T12:14:29;7.32;;;6.60;;
62880;SDS011;48969;49.934;8.596;2022-09-12T12:17:02;8.57;;;7.68;;
62880;SDS011;48969;49.934;8.596;2022-09-12T12:19:34;8.77;;;6.65;;
62880;SDS011;48969;49.934;8.596;2022-09-12T12:22:05;7.95;;;7.15;;
62880;SDS011;48969;49.934;8.596;2022-09-12T12:24:32;8.43;;;7.20;;
62880;SDS011;48969;49.934;8.596;2022-09-12T12:27:02;10.07;;;7.15;;
62880;SDS011;48969;49.934;8.596;2022-09-12T12:34:28;8.40;;;6.80;;
62880;SDS011;48969;49.934;8.596;2022-09-12T12:36:57;7.13;;;6.30;;
62880;SDS011;48969;49.934;8.596;2022-09-12T12:41:56;7.45;;;6.38;;
62880;SDS011;48969;49.934;8.596;2022-09-12T12:49:52;9.52;;;6.97;;
62880;SDS011;48969;49.934;8.596;2022-09-12T12:52:23;7.38;;;6.15;;
62880;SDS011;48969;49.934;8.596;2022-09-12T12:54:56;9.45;;;7.40;;
62880;SDS011;48969;49.934;8.596;2022-09-12T12:57:26;8.07;;;6.93;;
62880;SDS011;48969;49.934;8.596;2022-09-12T13:00:05;8.55;;;7.10;;
62880;SDS011;48969;49.934;8.596;2022-09-12T13:02:56;8.88;;;6.22;;
62880;SDS011;48969;49.934;8.596;2022-09-12T13:05:26;7.50;;;6.53;;
62880;SDS011;48969;49.934;8.596;2022-09-12T13:07:53;7.20;;;6.50;;
62880;SDS011;48969;49.934;8.596;2022-09-12T13:10:26;6.72;;;6.03;;
62880;SDS011;48969;49.934;8.596;2022-09-12T13:12:55;7.78;;;6.97;;
62880;SDS011;48969;49.934;8.596;2022-09-12T13:18:11;8.25;;;6.45;;
62880;SDS011;48969;49.934;8.596;2022-09-12T13:20:47;7.13;;;6.43;;
62880;SDS011;48969;49.934;8.596;2022-09-12T13:23:21;7.85;;;6.80;;
62880;SDS011;48969;49.934;8.596;2022-09-12T13:25:54;7.20;;;6.40;;
62880;SDS011;48969;49.934;8.596;2022-09-12T13:28:22;7.50;;;6.60;;
62880;SDS011;48969;49.934;8.596;2022-09-12T13:30:56;9.02;;;6.60;;
62880;SDS011;48969;49.934;8.596;2022-09-12T13:34:05;7.18;;;6.47;;
62880;SDS011;48969;49.934;8.596;2022-09-12T13:36:27;7.13;;;6.43;;
62880;SDS011;48969;49.934;8.596;2022-09-12T13:44:14;8.25;;;5.97;;
62880;SDS011;48969;49.934;8.596;2022-09-12T13:46:42;7.47;;;6.43;;
62880;SDS011;48969;49.934;8.596;2022-09-12T13:49:17;7.10;;;6.40;;
62880;SDS011;48969;49.934;8.596;2022-09-12T13:51:51;6.75;;;5.80;;
62880;SDS011;48969;49.934;8.596;2022-09-12T13:54:22;7.68;;;6.40;;
62880;SDS011;48969;49.934;8.596;2022-09-12T13:56:47;8.18;;;6.30;;
62880;SDS011;48969;49.934;8.596;2022-09-12T13:59:13;7.68;;;6.00;;
62880;SDS011;48969;49.934;8.596;2022-09-12T14:01:41;6.55;;;5.85;;
62880;SDS011;48969;49.934;8.596;2022-09-12T14:04:14;7.22;;;6.20;;
62880;SDS011;48969;49.934;8.596;2022-09-12T14:06:59;6.28;;;5.43;;
62880;SDS011;48969;49.934;8.596;2022-09-12T14:09:31;6.15;;;5.50;;
62880;SDS011;48969;49.934;8.596;2022-09-12T14:12:02;6.50;;;5.80;;
62880;SDS011;48969;49.934;8.596;2022-09-12T14:14:33;7.00;;;6.07;;
62880;SDS011;48969;49.934;8.596;2022-09-12T14:17:01;6.10;;;5.50;;
62880;SDS011;48969;49.934;8.596;2022-09-12T14:20:00;6.85;;;5.22;;
62880;SDS011;48969;49.934;8.596;2022-09-12T14:22:29;6.13;;;5.53;;
62880;SDS011;48969;49.934;8.596;2022-09-12T14:24:56;9.55;;;5.88;;
62880;SDS011;48969;49.934;8.596;2022-09-12T14:27:24;7.00;;;5.07;;
62880;SDS011;48969;49.934;8.596;2022-09-12T14:29:55;6.45;;;5.53;;
62880;SDS011;48969;49.934;8.596;2022-09-12T14:32:26;7.10;;;5.57;;
62880;SDS011;48969;49.934;8.596;2022-09-12T14:37:35;6.15;;;5.25;;
62880;SDS011;48969;49.934;8.596;2022-09-12T14:40:01;5.95;;;5.30;;
62880;SDS011;48969;49.934;8.596;2022-09-12T14:42:30;5.78;;;5.18;;
62880;SDS011;48969;49.934;8.596;2022-09-12T14:45:00;6.80;;;5.22;;
62880;SDS011;48969;49.934;8.596;2022-09-12T14:47:33;5.82;;;5.18;;
62880;SDS011;48969;49.934;8.596;2022-09-12T14:52:32;6.30;;;5.70;;
62880;SDS011;48969;49.934;8.596;2022-09-12T14:55:03;6.60;;;5.45;;
62880;SDS011;48969;49.934;8.596;2022-09-12T14:57:44;6.47;;;5.60;;
62880;SDS011;48969;49.934;8.596;2022-09-12T15:02:39;6.43;;;5.13;;
62880;SDS011;48969;49.934;8.596;2022-09-12T15:10:01;9.30;;;6.00;;
62880;SDS011;48969;49.934;8.596;2022-09-12T15:12:49;6.25;;;5.65;;
62880;SDS011;48969;49.934;8.596;2022-09-12T15:15:16;6.45;;;5.65;;
62880;SDS011;48969;49.934;8.596;2022-09-12T15:17:43;7.35;;;5.47;;
62880;SDS011;48969;49.934;8.596;2022-09-12T15:20:08;5.72;;;5.00;;
62880;SDS011;48969;49.934;8.596;2022-09-12T15:22:34;5.90;;;5.05;;
62880;SDS011;48969;49.934;8.596;2022-09-12T15:25:02;5.95;;;5.20;;
62880;SDS011;48969;49.934;8.596;2022-09-12T15:27:28;5.22;;;4.70;;
62880;SDS011;48969;49.934;8.596;2022-09-12T15:29:53;6.05;;;5.32;;
62880;SDS011;48969;49.934;8.596;2022-09-12T15:32:22;8.00;;;4.95;;
62880;SDS011;48969;49.934;8.596;2022-09-12T15:34:49;6.30;;;5.68;;
62880;SDS011;48969;49.934;8.596;2022-09-12T15:37:14;6.05;;;5.18;;
62880;SDS011;48969;49.934;8.596;2022-09-12T15:39:41;13.10;;;5.10;;
62880;SDS011;48969;49.934;8.596;2022-09-12T15:42:08;5.53;;;4.70;;
62880;SDS011;48969;49.934;8.596;2022-09-12T15:44:35;8.68;;;5.25;;
62880;SDS011;48969;49.934;8.596;2022-09-12T15:47:00;5.05;;;4.55;;
62880;SDS011;48969;49.934;8.596;2022-09-12T15:49:25;6.32;;;5.28;;
62880;SDS011;48969;49.934;8.596;2022-09-12T15:51:50;5.82;;;4.85;;
62880;SDS011;48969;49.934;8.596;2022-09-12T15:54:16;5.30;;;4.78;;
62880;SDS011;48969;49.934;8.596;2022-09-12T15:56:42;5.72;;;5.13;;
62880;SDS011;48969;49.934;8.596;2022-09-12T15:59:08;5.53;;;4.78;;
62880;SDS011;48969;49.934;8.596;2022-09-12T16:01:34;6.35;;;5.30;;
62880;SDS011;48969;49.934;8.596;2022-09-12T16:04:01;6.05;;;4.80;;
62880;SDS011;48969;49.934;8.596;2022-09-12T16:06:27;5.53;;;5.00;;
62880;SDS011;48969;49.934;8.596;2022-09-12T16:08:54;5.40;;;4.90;;
62880;SDS011;48969;49.934;8.596;2022-09-12T16:11:24;6.82;;;5.20;;
62880;SDS011;48969;49.934;8.596;2022-09-12T16:13:51;7.63;;;5.22;;
62880;SDS011;48969;49.934;8.596;2022-09-12T16:16:17;5.03;;;4.53;;
62880;SDS011;48969;49.934;8.596;2022-09-12T16:21:26;5.90;;;5.30;;
62880;SDS011;48969;49.934;8.596;2022-09-12T16:34:16;6.15;;;4.97;;
62880;SDS011;48969;49.934;8.596;2022-09-12T16:36:59;5.38;;;4.80;;
62880;SDS011;48969;49.934;8.596;2022-09-12T16:39:34;5.15;;;4.60;;
62880;SDS011;48969;49.934;8.596;2022-09-12T16:42:07;5.88;;;5.20;;
62880;SDS011;48969;49.934;8.596;2022-09-12T16:44:45;6.05;;;4.70;;
62880;SDS011;48969;49.934;8.596;2022-09-12T16:55:10;9.93;;;4.95;;
62880;SDS011;48969;49.934;8.596;2022-09-12T16:58:12;7.90;;;5.30;;
62880;SDS011;48969;49.934;8.596;2022-09-12T17:00:38;5.78;;;4.35;;
62880;SDS011;48969;49.934;8.596;2022-09-12T17:03:15;5.90;;;4.65;;
62880;SDS011;48969;49.934;8.596;2022-09-12T17:05:55;5.63;;;4.80;;
62880;SDS011;48969;49.934;8.596;2022-09-12T17:08:57;5.20;;;4.63;;
62880;SDS011;48969;49.934;8.596;2022-09-12T17:14:14;5.80;;;5.10;;
62880;SDS011;48969;49.934;8.596;2022-09-12T17:16:57;5.85;;;5.15;;
62880;SDS011;48969;49.934;8.596;2022-09-12T17:19:30;5.15;;;4.65;;
62880;SDS011;48969;49.934;8.596;2022-09-12T17:22:10;5.28;;;4.47;;
62880;SDS011;48969;49.934;8.596;2022-09-12T17:24:54;5.25;;;4.60;;